createdAt,value
2017-11-09T00:12:39.896Z,101675.05
2017-11-09T00:15:15.033Z,101678.22
2017-11-09T00:17:49.769Z,101677.43
2017-11-09T00:20:25.414Z,101678.22
2017-11-09T00:23:01.381Z,101681.25
2017-11-09T00:25:35.993Z,101687.13
2017-11-09T00:28:10.834Z,101690.21
2017-11-09T00:30:45.762Z,101690.61
2017-11-09T00:33:22.670Z,101693.78
2017-11-09T00:35:57.961Z,101681.31
2017-11-09T00:38:32.737Z,101698.66
2017-11-09T00:41:07.446Z,101693.00
2017-11-09T00:43:42.250Z,101695.73
2017-11-09T00:46:17.079Z,101700.60
2017-11-09T00:48:51.830Z,101706.41
2017-11-09T00:51:26.452Z,101702.73
2017-11-09T00:54:01.298Z,101712.50
2017-11-09T00:56:36.161Z,101710.75
2017-11-09T00:59:10.945Z,101709.91
2017-11-09T01:01:45.810Z,101708.16
2017-11-09T01:04:20.804Z,101705.53
2017-11-09T01:06:55.737Z,101707.86
2017-11-09T01:09:30.457Z,101707.52
2017-11-09T01:12:04.773Z,101708.06
2017-11-09T01:14:39.801Z,101707.56
2017-11-09T01:17:14.310Z,101703.39
2017-11-09T01:19:49.265Z,101701.50
2017-11-09T01:22:25.137Z,101706.18
2017-11-09T01:25:00.547Z,101701.05
2017-11-09T01:27:35.349Z,101705.27
2017-11-09T01:30:11.048Z,101699.66
2017-11-09T01:32:46.105Z,101694.69
2017-11-09T01:35:21.068Z,101697.27
2017-11-09T01:37:56.653Z,101702.54
2017-11-09T01:40:31.794Z,101700.89
2017-11-09T01:43:06.560Z,101703.99
2017-11-09T01:45:41.449Z,101703.63
2017-11-09T01:48:16.454Z,101704.04
2017-11-09T01:50:50.809Z,101709.36
2017-11-09T01:53:25.749Z,101715.13
2017-11-09T01:56:00.728Z,101715.48
2017-11-09T01:58:35.565Z,101712.98
2017-11-09T02:01:10.508Z,101711.36
2017-11-09T02:03:45.033Z,101711.94
2017-11-09T02:06:19.493Z,101718.30
2017-11-09T02:08:55.000Z,101717.95
2017-11-09T02:11:29.548Z,101716.77
2017-11-09T02:14:04.353Z,101718.60
2017-11-09T02:16:39.568Z,101714.63
2017-11-09T02:19:14.438Z,101717.76
2017-11-09T02:21:49.109Z,101715.53
2017-11-09T02:24:24.093Z,101712.39
2017-11-09T02:26:58.700Z,101719.01
2017-11-09T02:29:33.476Z,101727.06
2017-11-09T02:32:07.396Z,101712.89
2017-11-09T02:34:42.428Z,101716.92
2017-11-09T02:37:17.190Z,101718.70
2017-11-09T02:39:52.532Z,101714.82
2017-11-09T02:42:27.221Z,101718.95
2017-11-09T02:45:01.791Z,101717.70
2017-11-09T02:47:37.303Z,101719.95
2017-11-09T02:50:11.805Z,101723.93
2017-11-09T02:52:46.557Z,101717.27
2017-11-09T02:55:21.362Z,101711.94
2017-11-09T02:57:56.244Z,101718.20
2017-11-09T03:00:31.161Z,101720.39
2017-11-09T03:03:05.921Z,101714.23
2017-11-09T03:05:40.594Z,101724.17
2017-11-09T03:08:15.304Z,101726.91
2017-11-09T03:10:50.706Z,101733.52
2017-11-09T03:13:25.729Z,101726.22
2017-11-09T03:16:00.853Z,101723.03
2017-11-09T03:18:35.845Z,101729.59
2017-11-09T03:21:10.637Z,101722.39
2017-11-09T03:23:45.722Z,101722.94
2017-11-09T03:26:20.624Z,101725.16
2017-11-09T03:28:55.373Z,101721.09
2017-11-09T03:31:30.221Z,101713.43
2017-11-09T03:34:05.026Z,101713.84
2017-11-09T03:36:39.594Z,101709.75
2017-11-09T03:39:14.299Z,101706.72
2017-11-09T03:41:49.600Z,101718.84
2017-11-09T03:44:23.988Z,101708.06
2017-11-09T03:46:58.985Z,101710.39
2017-11-09T03:49:34.027Z,101705.67
2017-11-09T03:52:09.632Z,101707.66
2017-11-09T03:54:44.433Z,101701.95
2017-11-09T03:57:19.451Z,101700.20
2017-11-09T03:59:54.312Z,101696.37
2017-11-09T04:02:29.061Z,101698.26
2017-11-09T04:05:04.845Z,101700.09
2017-11-09T04:07:39.570Z,101688.86
2017-11-09T04:10:14.257Z,101690.51
2017-11-09T04:12:48.949Z,101691.75
2017-11-09T04:15:23.736Z,101695.68
2017-11-09T04:17:58.593Z,101701.75
2017-11-09T04:20:33.452Z,101693.64
2017-11-09T04:23:08.208Z,101683.95
2017-11-09T04:25:42.928Z,101687.78
2017-11-09T04:28:18.214Z,101692.34
2017-11-09T04:30:53.196Z,101695.18
2017-11-09T04:33:28.409Z,101696.66
2017-11-09T04:36:03.652Z,101693.23
2017-11-09T04:38:38.334Z,101702.23
2017-11-09T04:41:13.840Z,101701.73
2017-11-09T04:43:49.471Z,101701.73
2017-11-09T04:46:25.180Z,101702.73
2017-11-09T04:49:00.125Z,101699.65
2017-11-09T04:51:35.400Z,101703.02
2017-11-09T04:54:10.813Z,101699.53
2017-11-09T04:56:45.850Z,101696.95
2017-11-09T04:59:20.673Z,101695.70
2017-11-09T05:01:55.637Z,101681.56
2017-11-09T05:04:30.345Z,101700.72
2017-11-09T05:07:05.636Z,101697.68
2017-11-09T05:09:41.201Z,101697.77
2017-11-09T05:12:16.009Z,101689.58
2017-11-09T05:14:50.764Z,101701.59
2017-11-09T05:17:25.656Z,101703.63
2017-11-09T05:20:00.560Z,101702.24
2017-11-09T05:22:35.398Z,101705.72
2017-11-09T05:25:10.322Z,101715.12
2017-11-09T05:27:45.180Z,101713.77
2017-11-09T05:30:19.616Z,101706.45
2017-11-09T05:32:54.663Z,101718.32
2017-11-09T05:35:29.741Z,101708.16
2017-11-09T05:38:04.440Z,101703.11
2017-11-09T05:40:39.386Z,101705.01
2017-11-09T05:43:14.529Z,101706.99
2017-11-09T05:45:49.680Z,101705.65
2017-11-09T05:48:24.300Z,101708.34
2017-11-09T05:50:59.550Z,101710.89
2017-11-09T05:53:34.685Z,101710.68
2017-11-09T05:56:09.557Z,101711.30
2017-11-09T05:58:44.112Z,101712.92
2017-11-09T06:01:18.958Z,101715.20
2017-11-09T06:03:54.448Z,101712.84
2017-11-09T06:06:29.446Z,101720.48
2017-11-09T06:09:03.270Z,101724.84
2017-11-09T06:11:38.352Z,101725.42
2017-11-09T06:14:13.728Z,101730.42
2017-11-09T06:16:48.562Z,101724.64
2017-11-09T06:19:23.489Z,101719.76
2017-11-09T06:21:58.591Z,101719.98
2017-11-09T06:24:33.080Z,101726.28
2017-11-09T06:27:08.529Z,101718.91
2017-11-09T06:29:44.148Z,101715.44
2017-11-09T06:32:19.010Z,101717.22
2017-11-09T06:34:53.784Z,101720.21
2017-11-09T06:37:28.442Z,101721.20
2017-11-09T06:40:03.264Z,101723.02
2017-11-09T06:42:38.126Z,101724.28
2017-11-09T06:45:12.771Z,101723.02
2017-11-09T06:47:47.492Z,101719.77
2017-11-09T06:50:22.420Z,101726.33
2017-11-09T06:52:57.880Z,101730.25
2017-11-09T06:55:32.660Z,101735.97
2017-11-09T06:58:08.700Z,101741.95
2017-11-09T07:00:43.376Z,101743.11
2017-11-09T07:03:19.953Z,101747.09
2017-11-09T07:05:55.628Z,101753.89
2017-11-09T07:08:30.298Z,101755.09
2017-11-09T07:11:04.948Z,101751.87
2017-11-09T07:13:39.658Z,101759.43
2017-11-09T07:16:14.405Z,101757.59
2017-11-09T07:18:49.224Z,101755.00
2017-11-09T07:21:24.188Z,101744.98
2017-11-09T07:23:58.842Z,101748.66
2017-11-09T07:26:33.284Z,101759.16
2017-11-09T07:29:08.546Z,101761.07
2017-11-09T07:31:43.442Z,101760.94
2017-11-09T07:34:18.157Z,101757.53
2017-11-09T07:36:52.975Z,101766.39
2017-11-09T07:39:27.656Z,101762.42
2017-11-09T07:42:02.395Z,101757.82
2017-11-09T07:44:37.514Z,101758.31
2017-11-09T07:47:13.402Z,101745.66
2017-11-09T07:49:48.105Z,101742.88
2017-11-09T07:52:23.358Z,101756.25
2017-11-09T07:54:58.257Z,101752.53
2017-11-09T07:57:33.493Z,101751.58
2017-11-09T08:00:08.675Z,101749.25
2017-11-09T08:02:44.078Z,101747.45
2017-11-09T08:05:19.363Z,101740.50
2017-11-09T08:07:54.315Z,101751.05
2017-11-09T08:10:29.405Z,101753.16
2017-11-09T08:13:04.293Z,101751.11
2017-11-09T08:15:39.711Z,101756.83
2017-11-09T08:18:14.662Z,101765.17
2017-11-09T08:20:49.804Z,101760.55
2017-11-09T08:23:25.550Z,101763.70
2017-11-09T08:26:01.405Z,101757.97
2017-11-09T08:28:37.483Z,101766.19
2017-11-09T08:31:12.960Z,101770.88
2017-11-09T08:33:48.138Z,101767.88
2017-11-09T08:36:22.962Z,101765.16
2017-11-09T08:38:57.588Z,101769.95
2017-11-09T08:41:32.308Z,101768.50
2017-11-09T08:44:07.063Z,101771.34
2017-11-09T08:46:41.864Z,101767.33
2017-11-09T08:49:16.813Z,101762.36
2017-11-09T08:51:52.469Z,101767.29
2017-11-09T08:54:27.496Z,101769.77
2017-11-09T08:57:02.361Z,101764.10
2017-11-09T08:59:37.185Z,101763.67
2017-11-09T09:02:11.929Z,101764.38
2017-11-09T09:04:47.740Z,101762.44
2017-11-09T09:07:22.366Z,101753.67
2017-11-09T09:09:57.628Z,101749.19
2017-11-09T09:12:32.916Z,101751.69
2017-11-09T09:15:07.528Z,101758.61
2017-11-09T09:17:41.816Z,101748.61
2017-11-09T09:20:17.826Z,101749.41
2017-11-09T09:22:54.253Z,101752.78
2017-11-09T09:25:34.532Z,101750.16
2017-11-09T09:28:09.669Z,101747.50
2017-11-09T09:30:44.057Z,101754.31
2017-11-09T09:33:23.944Z,101748.16
2017-11-09T09:49:26.148Z,101745.55
2017-11-09T09:52:04.008Z,101751.56
2017-11-09T09:54:38.590Z,101754.45
2017-11-09T09:57:13.316Z,101749.57
2017-11-09T09:59:48.377Z,101750.52
2017-11-09T10:02:23.458Z,101752.08
2017-11-09T10:04:58.858Z,101748.20
2017-11-09T10:07:33.797Z,101745.85
2017-11-09T10:10:08.769Z,101745.03
2017-11-09T10:12:43.337Z,101746.34
2017-11-09T10:15:18.660Z,101748.63
2017-11-09T10:17:53.489Z,101745.89
2017-11-09T10:20:28.353Z,101741.39
2017-11-09T10:23:03.169Z,101727.87
2017-11-09T10:25:38.064Z,101724.70
2017-11-09T10:28:12.726Z,101723.70
2017-11-09T10:30:47.565Z,101722.05
2017-11-09T10:33:22.714Z,101726.29
2017-11-09T10:35:58.023Z,101729.72
2017-11-09T10:38:32.797Z,101720.94
2017-11-09T10:41:07.223Z,101720.36
2017-11-09T10:43:41.830Z,101718.01
2017-11-09T10:46:16.561Z,101719.73
2017-11-09T10:48:51.432Z,101713.08
2017-11-09T10:51:26.498Z,101719.53
2017-11-09T10:54:01.161Z,101716.59
2017-11-09T10:56:36.180Z,101705.91
2017-11-09T10:59:10.629Z,101709.88
2017-11-09T11:01:45.641Z,101709.66
2017-11-09T11:04:20.648Z,101716.27
2017-11-09T11:06:55.405Z,101718.06
2017-11-09T11:09:29.980Z,101709.19
2017-11-09T11:12:04.641Z,101710.53
2017-11-09T11:14:39.665Z,101716.62
2017-11-09T11:17:14.472Z,101706.77
2017-11-09T11:19:49.134Z,101711.61
2017-11-09T11:22:24.081Z,101709.18
2017-11-09T11:24:59.075Z,101703.73
2017-11-09T11:27:33.763Z,101695.61
2017-11-09T11:30:08.565Z,101694.39
2017-11-09T11:32:43.393Z,101689.28
2017-11-09T11:35:18.041Z,101695.02
2017-11-09T11:37:53.665Z,101701.97
2017-11-09T11:40:28.744Z,101696.42
2017-11-09T11:43:03.785Z,101691.45
2017-11-09T11:45:38.773Z,101694.90
2017-11-09T11:48:13.965Z,101687.37
2017-11-09T11:50:49.000Z,101695.51
2017-11-09T11:53:23.860Z,101703.92
2017-11-09T11:55:59.013Z,101698.03
2017-11-09T11:58:33.797Z,101702.73
2017-11-09T12:01:08.988Z,101699.89
2017-11-09T12:03:46.703Z,101701.28
2017-11-09T12:06:22.051Z,101698.52
2017-11-09T12:08:57.013Z,101696.00
2017-11-09T12:11:31.800Z,101692.87
2017-11-09T12:14:06.717Z,101684.67
2017-11-09T12:16:41.477Z,101687.05
2017-11-09T12:19:16.141Z,101695.58
2017-11-09T12:21:50.800Z,101691.88
2017-11-09T12:24:25.880Z,101686.33
2017-11-09T12:27:00.885Z,101685.81
2017-11-09T12:29:35.961Z,101688.91
2017-11-09T12:32:10.656Z,101685.12
2017-11-09T12:34:45.445Z,101678.61
2017-11-09T12:37:20.268Z,101683.27
2017-11-09T12:39:55.057Z,101681.36
2017-11-09T12:42:30.153Z,101681.82
2017-11-09T12:45:04.809Z,101682.78
2017-11-09T12:47:40.381Z,101682.55
2017-11-09T12:50:15.194Z,101667.51
2017-11-09T12:52:49.821Z,101661.96
2017-11-09T12:55:24.768Z,101658.08
2017-11-09T12:57:59.488Z,101664.41
2017-11-09T13:00:34.325Z,101669.53
2017-11-09T13:03:08.938Z,101666.04
2017-11-09T13:05:43.755Z,101676.31
2017-11-09T13:08:18.696Z,101671.31
2017-11-09T13:10:53.404Z,101666.45
2017-11-09T13:13:28.477Z,101666.21
2017-11-09T13:16:03.353Z,101660.09
2017-11-09T13:18:38.556Z,101663.84
2017-11-09T13:21:13.653Z,101663.51
2017-11-09T13:23:48.584Z,101675.84
2017-11-09T13:26:23.417Z,101669.66
2017-11-09T13:28:58.413Z,101669.16
2017-11-09T13:31:32.582Z,101678.09
2017-11-09T13:34:07.498Z,101670.23
2017-11-09T13:36:42.476Z,101664.86
2017-11-09T13:39:17.393Z,101669.91
2017-11-09T13:41:52.052Z,101658.63
2017-11-09T13:44:26.994Z,101642.94
2017-11-09T13:47:01.917Z,101655.72
2017-11-09T13:49:36.733Z,101668.39
2017-11-09T13:52:11.620Z,101670.64
2017-11-09T13:54:46.380Z,101675.97
2017-11-09T13:57:21.125Z,101669.84
2017-11-09T13:59:56.046Z,101673.87
2017-11-09T14:02:30.877Z,101674.84
2017-11-09T14:05:05.822Z,101674.33
2017-11-09T14:07:41.040Z,101680.73
2017-11-09T14:10:22.473Z,101682.59
2017-11-09T14:12:58.170Z,101694.44
2017-11-09T14:15:33.017Z,101684.11
2017-11-09T14:18:07.829Z,101675.51
2017-11-09T14:20:42.580Z,101686.00
2017-11-09T14:23:17.408Z,101682.47
2017-11-09T14:25:52.524Z,101672.48
2017-11-09T14:28:27.466Z,101683.47
2017-11-09T14:31:03.057Z,101678.58
2017-11-09T14:33:38.440Z,101669.16
2017-11-09T14:36:13.332Z,101664.91
2017-11-09T14:38:51.252Z,101658.73
2017-11-09T14:41:26.248Z,101664.82
2017-11-09T14:44:01.257Z,101653.06
2017-11-09T14:46:36.752Z,101655.58
2017-11-09T14:49:11.569Z,101661.45
2017-11-09T14:51:46.225Z,101657.48
2017-11-09T14:54:20.668Z,101652.59
2017-11-09T14:56:55.560Z,101647.25
2017-11-09T14:59:30.272Z,101647.22
2017-11-09T15:02:05.024Z,101641.19
2017-11-09T15:04:39.764Z,101638.09
2017-11-09T15:07:14.620Z,101636.58
2017-11-09T15:09:49.336Z,101631.07
2017-11-09T15:12:24.501Z,101633.44
2017-11-09T15:14:59.044Z,101635.09
2017-11-09T15:17:33.745Z,101627.68
2017-11-09T15:20:08.548Z,101623.42
2017-11-09T15:22:43.124Z,101625.12
2017-11-09T15:25:17.728Z,101623.95
2017-11-09T15:27:52.701Z,101614.11
2017-11-09T15:30:27.809Z,101619.19
2017-11-09T15:33:02.569Z,101619.55
2017-11-09T15:35:37.481Z,101616.87
2017-11-09T15:38:12.234Z,101607.23
2017-11-09T15:40:47.164Z,101615.83
2017-11-09T15:43:21.773Z,101628.90
2017-11-09T15:45:56.649Z,101626.77
2017-11-09T15:48:31.348Z,101619.31
2017-11-09T15:51:06.393Z,101615.53
2017-11-09T15:53:41.195Z,101609.62
2017-11-09T15:56:16.031Z,101607.19
2017-11-09T15:58:50.960Z,101600.17
2017-11-09T16:01:26.240Z,101589.55
2017-11-09T16:04:01.045Z,101592.48
2017-11-09T16:06:37.808Z,101589.04
2017-11-09T16:09:12.741Z,101582.72
2017-11-09T16:11:47.608Z,101589.30
2017-11-09T16:14:22.428Z,101588.64
2017-11-09T16:16:57.181Z,101583.43
2017-11-09T16:19:32.156Z,101582.48
2017-11-09T16:22:06.989Z,101576.37
2017-11-09T16:24:41.828Z,101586.36
2017-11-09T16:27:23.215Z,101602.61
2017-11-09T16:29:58.833Z,101615.03
2017-11-09T16:32:34.825Z,101609.03
2017-11-09T16:35:11.386Z,101607.97
2017-11-09T16:37:47.001Z,101609.47
2017-11-09T16:40:22.193Z,101617.17
2017-11-09T16:42:57.175Z,101605.84
2017-11-09T16:45:32.232Z,101606.94
2017-11-09T16:48:07.328Z,101598.03
2017-11-09T16:50:42.181Z,101613.05
2017-11-09T16:53:24.997Z,101617.78
2017-11-09T16:55:59.757Z,101608.27
2017-11-09T16:58:34.818Z,101604.45
2017-11-09T17:01:09.540Z,101601.12
2017-11-09T17:03:45.573Z,101603.66
2017-11-09T17:06:20.305Z,101598.98
2017-11-09T17:08:55.224Z,101594.77
2017-11-09T17:11:30.129Z,101585.81
2017-11-09T17:14:05.049Z,101586.11
2017-11-09T17:16:39.811Z,101594.16
2017-11-09T17:19:15.460Z,101589.59
2017-11-09T17:21:50.121Z,101582.28
2017-11-09T17:24:25.271Z,101589.48
2017-11-09T17:27:00.341Z,101585.31
2017-11-09T17:29:35.957Z,101578.16
2017-11-09T17:32:11.305Z,101586.06
2017-11-09T17:34:46.550Z,101576.91
2017-11-09T17:37:21.289Z,101578.80
2017-11-09T17:39:56.476Z,101582.58
2017-11-09T17:42:31.933Z,101577.27
2017-11-09T17:45:07.196Z,101577.67
2017-11-09T17:47:41.936Z,101580.94
2017-11-09T17:50:16.797Z,101590.53
2017-11-09T17:52:51.792Z,101591.12
2017-11-09T17:55:26.825Z,101581.24
2017-11-09T17:58:01.913Z,101593.97
2017-11-09T18:00:36.686Z,101597.59
2017-11-09T18:03:11.715Z,101612.06
2017-11-09T18:05:46.559Z,101610.61
2017-11-09T18:08:21.472Z,101614.64
2017-11-09T18:10:56.354Z,101603.45
2017-11-09T18:13:32.121Z,101603.91
2017-11-09T18:16:07.096Z,101601.95
2017-11-09T18:18:42.476Z,101615.84
2017-11-09T18:21:18.537Z,101613.84
2017-11-09T18:23:57.044Z,101614.58
2017-11-09T18:26:36.047Z,101612.49
2017-11-09T18:29:11.166Z,101613.34
2017-11-09T18:31:46.177Z,101604.64
2017-11-09T18:34:31.768Z,101608.56
2017-11-09T18:37:06.787Z,101600.92
2017-11-09T18:39:41.672Z,101604.84
2017-11-09T18:42:16.283Z,101643.82
2017-11-09T18:44:51.989Z,101603.84
2017-11-09T18:47:30.952Z,101594.20
2017-11-09T18:50:06.840Z,101592.17
2017-11-09T18:52:41.433Z,101582.42
2017-11-09T18:55:16.353Z,101579.39
2017-11-09T18:57:51.484Z,101586.50
2017-11-09T19:00:29.540Z,101579.79
2017-11-09T19:03:04.085Z,101589.55
2017-11-09T19:05:39.201Z,101589.14
2017-11-09T19:08:14.416Z,101578.12
2017-11-09T19:10:49.302Z,101563.80
2017-11-09T19:13:24.744Z,101559.27
2017-11-09T19:16:01.660Z,101558.83
2017-11-09T19:18:36.904Z,101549.69
2017-11-09T19:21:12.290Z,101545.91
2017-11-09T19:23:49.150Z,101551.28
2017-11-09T19:26:24.224Z,101543.83
2017-11-09T19:28:59.320Z,101543.04
2017-11-09T19:31:34.577Z,101546.35
2017-11-09T19:34:09.346Z,101540.10
2017-11-09T19:36:44.545Z,101547.00
2017-11-09T19:39:20.510Z,101541.38
2017-11-09T19:41:56.260Z,101543.92
2017-11-09T19:44:30.909Z,101535.76
2017-11-09T19:47:06.048Z,101542.52
2017-11-09T19:49:40.942Z,101548.53
2017-11-09T19:52:16.040Z,101546.03
2017-11-09T19:54:53.434Z,101550.56
2017-11-09T19:57:28.565Z,101543.50
2017-11-09T20:00:03.254Z,101547.76
2017-11-09T20:02:39.464Z,101559.91
2017-11-09T20:05:14.532Z,101557.41
2017-11-09T20:07:49.280Z,101549.75
2017-11-09T20:10:24.153Z,101540.52
2017-11-09T20:12:59.456Z,101539.95
2017-11-09T20:15:34.308Z,101544.58
2017-11-09T20:18:10.704Z,101536.77
2017-11-09T20:20:46.406Z,101539.12
2017-11-09T20:23:21.168Z,101535.42
2017-11-09T20:25:56.176Z,101530.95
2017-11-09T20:28:30.916Z,101518.36
2017-11-09T20:31:06.813Z,101518.88
2017-11-09T20:33:41.307Z,101509.81
2017-11-09T20:36:16.236Z,101513.94
2017-11-09T20:38:50.805Z,101521.26
2017-11-09T20:41:25.601Z,101519.06
2017-11-09T20:44:00.589Z,101515.77
2017-11-09T20:46:35.755Z,101514.48
2017-11-09T20:49:10.773Z,101512.41
2017-11-09T20:51:46.444Z,101524.11
2017-11-09T20:54:21.456Z,101527.20
2017-11-09T20:56:57.028Z,101520.15
2017-11-09T20:59:32.213Z,101518.80
2017-11-09T21:02:07.101Z,101518.56
2017-11-09T21:04:42.144Z,101514.19
2017-11-09T21:07:17.102Z,101507.97
2017-11-09T21:09:52.510Z,101508.72
2017-11-09T21:12:27.671Z,101516.27
2017-11-09T21:15:06.513Z,101518.85
2017-11-09T21:17:41.384Z,101533.46
2017-11-09T21:20:16.191Z,101524.17
2017-11-09T21:22:52.122Z,101517.52
2017-11-09T21:25:26.882Z,101521.94
2017-11-09T21:28:01.827Z,101508.72
2017-11-09T21:30:37.755Z,101517.95
2017-11-09T21:33:12.598Z,101525.66
2017-11-09T21:35:47.382Z,101521.72
2017-11-09T21:38:27.507Z,101516.30
2017-11-09T21:41:02.832Z,101512.05
2017-11-09T21:43:37.897Z,101501.23
2017-11-09T21:46:12.868Z,101497.42
2017-11-09T21:48:47.994Z,101501.98
2017-11-09T21:51:23.747Z,101492.31
2017-11-09T21:53:58.360Z,101498.37
2017-11-09T21:56:32.920Z,101501.06
2017-11-09T21:59:07.945Z,101500.37
2017-11-09T22:01:42.770Z,101506.13
2017-11-09T22:04:17.816Z,101501.06
2017-11-09T22:06:52.784Z,101502.05
2017-11-09T22:09:28.364Z,101492.80
2017-11-09T22:12:03.260Z,101492.41
2017-11-09T22:14:38.297Z,101487.89
2017-11-09T22:17:13.234Z,101471.11
2017-11-09T22:19:48.100Z,101465.30
2017-11-09T22:22:22.837Z,101467.55
2017-11-09T22:24:57.609Z,101468.17
2017-11-09T22:27:32.826Z,101469.62
2017-11-09T22:30:07.495Z,101476.75
2017-11-09T22:32:42.709Z,101483.41
2017-11-09T22:35:17.238Z,101488.09
2017-11-09T22:37:52.248Z,101474.96
2017-11-09T22:40:27.272Z,101477.83
2017-11-09T22:43:01.777Z,101485.69
2017-11-09T22:45:36.376Z,101474.65
2017-11-09T22:48:11.872Z,101472.80
2017-11-09T22:50:46.504Z,101476.19
2017-11-09T22:53:21.181Z,101485.97
2017-11-09T22:55:55.989Z,101506.66
2017-11-09T22:58:30.991Z,101512.19
2017-11-09T23:01:05.580Z,101506.72
2017-11-09T23:03:40.475Z,101496.26
2017-11-09T23:06:15.270Z,101484.13
2017-11-09T23:08:50.142Z,101486.31
2017-11-09T23:11:25.242Z,101483.39
2017-11-09T23:14:00.579Z,101475.80
2017-11-09T23:16:35.032Z,101470.43
2017-11-09T23:19:09.775Z,101464.66
2017-11-09T23:21:44.765Z,101459.00
2017-11-09T23:24:20.008Z,101450.68
2017-11-09T23:26:55.242Z,101448.41
2017-11-09T23:29:29.786Z,101445.94
2017-11-09T23:32:04.794Z,101444.84
2017-11-09T23:34:39.650Z,101434.20
2017-11-09T23:37:15.270Z,101448.23
2017-11-09T23:39:50.277Z,101431.00
2017-11-09T23:42:25.277Z,101426.41
2017-11-09T23:45:00.398Z,101417.80
2017-11-09T23:47:35.269Z,101407.95
2017-11-09T23:50:10.335Z,101416.33
2017-11-09T23:52:45.094Z,101406.31
2017-11-09T23:55:20.314Z,101397.25
2017-11-09T23:57:55.061Z,101389.91
